createdAt,value
2022-08-09T00:00:00.534Z,20.30
2022-08-09T00:02:29.774Z,20.30
2022-08-09T00:05:03.579Z,20.30
2022-08-09T00:07:47.516Z,20.30
2022-08-09T00:10:21.095Z,20.20
2022-08-09T00:12:51.509Z,20.30
2022-08-09T00:15:20.160Z,20.20
2022-08-09T00:18:05.258Z,20.20
2022-08-09T00:20:41.380Z,20.20
2022-08-09T00:23:55.642Z,20.20
2022-08-09T00:26:08.115Z,20.10
2022-08-09T00:28:37.037Z,20.10
2022-08-09T00:31:30.467Z,20.10
2022-08-09T00:33:55.853Z,20.10
2022-08-09T00:36:29.621Z,20.10
2022-08-09T00:39:00.660Z,20.10
2022-08-09T00:44:10.126Z,20.10
2022-08-09T00:44:26.192Z,20.10
2022-08-09T00:46:57.891Z,20.10
2022-08-09T00:49:33.079Z,20.10
2022-08-09T00:52:02.073Z,20.00
2022-08-09T00:54:36.433Z,20.00
2022-08-09T00:57:10.215Z,20.00
2022-08-09T00:59:41.560Z,19.90
2022-08-09T01:02:16.327Z,19.90
2022-08-09T01:04:54.378Z,19.90
2022-08-09T01:07:37.769Z,19.90
2022-08-09T01:10:30.412Z,19.90
2022-08-09T01:13:07.499Z,19.90
2022-08-09T01:15:41.128Z,19.90
2022-08-09T01:18:30.223Z,19.90
2022-08-09T01:21:14.064Z,19.80
2022-08-09T01:24:03.012Z,19.80
2022-08-09T01:26:55.066Z,19.80
2022-08-09T01:29:55.291Z,19.80
2022-08-09T01:32:29.460Z,19.70
2022-08-09T01:35:17.969Z,19.70
2022-08-09T01:38:09.577Z,19.70
2022-08-09T01:40:52.409Z,19.70
2022-08-09T01:43:50.183Z,19.70
2022-08-09T01:46:25.236Z,19.70
2022-08-09T01:49:00.199Z,19.70
2022-08-09T01:51:42.800Z,19.60
2022-08-09T01:54:15.070Z,19.70
2022-08-09T01:56:51.431Z,19.60
2022-08-09T01:59:23.536Z,19.60
2022-08-09T02:01:59.833Z,19.60
2022-08-09T02:04:31.558Z,19.60
2022-08-09T02:08:34.604Z,19.60
2022-08-09T02:10:07.893Z,19.60
2022-08-09T02:12:39.271Z,19.60
2022-08-09T02:15:17.022Z,19.50
2022-08-09T02:18:01.271Z,19.50
2022-08-09T02:20:38.172Z,19.60
2022-08-09T02:23:10.055Z,19.50
2022-08-09T02:25:42.544Z,19.50
2022-08-09T02:28:21.230Z,19.50
2022-08-09T02:31:01.086Z,19.50
2022-08-09T02:33:37.866Z,19.50
2022-08-09T02:36:10.862Z,19.50
2022-08-09T02:38:47.690Z,19.50
2022-08-09T02:41:18.403Z,19.50
2022-08-09T02:43:55.056Z,19.40
2022-08-09T02:46:28.880Z,19.40
2022-08-09T02:49:02.791Z,19.40
2022-08-09T02:51:40.229Z,19.40
2022-08-09T02:54:12.365Z,19.40
2022-08-09T02:56:51.300Z,19.40
2022-08-09T02:59:26.672Z,19.40
2022-08-09T03:02:07.375Z,19.40
2022-08-09T03:04:40.741Z,19.40
2022-08-09T03:07:13.935Z,19.30
2022-08-09T03:09:43.849Z,19.30
2022-08-09T03:12:24.543Z,19.40
2022-08-09T03:14:53.862Z,19.30
2022-08-09T03:17:26.562Z,19.30
2022-08-09T03:20:03.513Z,19.30
2022-08-09T03:22:41.736Z,19.30
2022-08-09T03:25:26.159Z,19.30
2022-08-09T03:28:01.830Z,19.30
2022-08-09T03:30:33.667Z,19.30
2022-08-09T03:33:17.518Z,19.30
2022-08-09T03:36:12.647Z,19.30
2022-08-09T03:38:42.139Z,19.30
2022-08-09T03:41:15.654Z,19.30
2022-08-09T03:44:03.816Z,19.30
2022-08-09T03:46:33.687Z,19.30
2022-08-09T03:49:07.696Z,19.20
2022-08-09T03:51:54.082Z,19.20
2022-08-09T03:54:29.380Z,19.20
2022-08-09T03:57:00.434Z,19.20
2022-08-09T03:59:53.609Z,19.20
2022-08-09T04:02:19.803Z,19.10
2022-08-09T04:04:58.594Z,19.20
2022-08-09T04:07:33.646Z,19.10
2022-08-09T04:10:18.434Z,19.10
2022-08-09T04:12:51.326Z,19.10
2022-08-09T04:15:40.437Z,19.20
2022-08-09T04:18:16.639Z,19.20
2022-08-09T04:20:47.800Z,19.20
2022-08-09T04:23:17.228Z,19.40
2022-08-09T04:25:49.740Z,19.50
2022-08-09T04:28:33.260Z,19.60
2022-08-09T04:31:09.510Z,19.70
2022-08-09T04:33:51.451Z,19.80
2022-08-09T04:36:24.205Z,19.90
2022-08-09T04:38:52.663Z,20.00
2022-08-09T04:41:23.911Z,20.10
2022-08-09T04:44:05.961Z,20.10
2022-08-09T04:46:38.036Z,20.20
2022-08-09T04:49:40.699Z,20.20
2022-08-09T04:52:18.315Z,20.20
2022-08-09T04:54:51.623Z,20.20
2022-08-09T04:57:21.590Z,20.30
2022-08-09T04:59:52.489Z,20.30
2022-08-09T05:02:20.484Z,20.40
2022-08-09T05:04:48.468Z,20.40
2022-08-09T05:07:27.897Z,20.50
2022-08-09T05:09:57.728Z,20.50
2022-08-09T05:12:30.052Z,20.50
2022-08-09T05:14:59.019Z,20.50
2022-08-09T05:18:38.484Z,20.50
2022-08-09T05:20:15.014Z,20.50
2022-08-09T05:23:53.784Z,20.60
2022-08-09T05:25:32.793Z,20.60
2022-08-09T05:28:00.791Z,20.60
2022-08-09T05:30:31.231Z,20.60
2022-08-09T05:33:00.844Z,20.60
2022-08-09T05:35:29.984Z,20.60
2022-08-09T05:38:01.545Z,20.70
2022-08-09T05:40:29.924Z,20.70
2022-08-09T05:42:58.273Z,20.70
2022-08-09T05:45:26.348Z,20.70
2022-08-09T05:48:14.481Z,20.80
2022-08-09T05:50:50.560Z,20.80
2022-08-09T05:53:32.042Z,20.90
2022-08-09T05:56:01.986Z,20.90
2022-08-09T05:58:30.117Z,20.90
2022-08-09T06:00:58.336Z,20.90
2022-08-09T06:03:34.924Z,20.90
2022-08-09T06:06:11.790Z,21.00
2022-08-09T06:08:41.238Z,21.00
2022-08-09T06:11:16.325Z,21.00
2022-08-09T06:13:45.879Z,21.00
2022-08-09T06:16:16.314Z,21.00
2022-08-09T06:18:45.243Z,21.10
2022-08-09T06:21:13.172Z,21.10
2022-08-09T06:23:58.857Z,21.10
2022-08-09T06:26:29.850Z,21.20
2022-08-09T06:29:04.790Z,21.20
2022-08-09T06:31:39.893Z,21.20
2022-08-09T06:34:23.275Z,21.20
2022-08-09T06:36:57.177Z,21.20
2022-08-09T06:39:48.872Z,21.20
2022-08-09T06:42:19.695Z,21.20
2022-08-09T06:44:51.854Z,21.30
2022-08-09T06:47:23.562Z,21.30
2022-08-09T06:50:13.757Z,21.40
2022-08-09T06:55:17.995Z,21.40
2022-08-09T06:58:02.661Z,21.50
2022-08-09T07:00:57.091Z,21.50
2022-08-09T07:03:27.906Z,21.60
2022-08-09T07:06:04.412Z,21.60
2022-08-09T07:08:34.151Z,21.60
2022-08-09T07:11:04.311Z,21.60
2022-08-09T07:13:45.045Z,21.60
2022-08-09T07:16:43.207Z,21.60
2022-08-09T07:19:15.061Z,21.70
2022-08-09T07:21:55.861Z,21.60
2022-08-09T07:24:31.840Z,21.70
2022-08-09T07:27:33.531Z,21.70
2022-08-09T07:30:00.285Z,21.70
2022-08-09T07:32:32.044Z,21.80
2022-08-09T07:35:02.798Z,21.70
2022-08-09T07:37:42.972Z,21.90
2022-08-09T07:40:16.968Z,21.90
2022-08-09T07:43:14.692Z,21.90
2022-08-09T07:45:45.058Z,21.90
2022-08-09T07:48:25.481Z,21.90
2022-08-09T07:51:09.309Z,21.90
2022-08-09T07:54:05.059Z,21.90
2022-08-09T07:56:38.755Z,21.90
2022-08-09T07:59:15.906Z,21.90
2022-08-09T08:02:02.303Z,21.90
2022-08-09T08:04:31.495Z,21.90
2022-08-09T08:07:15.155Z,21.90
2022-08-09T08:09:56.740Z,21.90
2022-08-09T08:12:42.339Z,22.00
2022-08-09T08:15:16.662Z,22.00
2022-08-09T08:17:53.868Z,22.00
2022-08-09T08:20:29.337Z,22.00
2022-08-09T08:23:01.455Z,22.00
2022-08-09T08:25:40.181Z,22.10
2022-08-09T08:28:15.262Z,22.10
2022-08-09T08:30:45.370Z,22.20
2022-08-09T08:33:24.019Z,22.20
2022-08-09T08:35:59.437Z,22.30
2022-08-09T08:38:29.056Z,22.30
2022-08-09T08:40:58.123Z,22.30
2022-08-09T08:43:27.463Z,22.30
2022-08-09T08:46:10.179Z,22.30
2022-08-09T08:48:53.596Z,22.30
2022-08-09T08:51:22.819Z,22.30
2022-08-09T08:54:03.259Z,22.30
2022-08-09T08:56:36.249Z,22.30
2022-08-09T08:59:19.995Z,22.30
2022-08-09T09:01:57.437Z,22.20
2022-08-09T09:04:33.154Z,22.20
2022-08-09T09:07:10.958Z,22.20
2022-08-09T09:10:02.468Z,22.20
2022-08-09T09:12:35.634Z,22.20
2022-08-09T09:15:06.452Z,22.40
2022-08-09T09:17:48.339Z,22.50
2022-08-09T09:20:18.398Z,22.60
2022-08-09T09:22:55.697Z,22.50
2022-08-09T09:26:03.880Z,22.40
2022-08-09T09:28:53.231Z,22.40
2022-08-09T09:31:17.432Z,22.30
2022-08-09T09:34:15.287Z,22.30
2022-08-09T09:36:52.834Z,22.30
2022-08-09T09:39:42.811Z,22.20
2022-08-09T09:42:24.343Z,22.20
2022-08-09T09:44:58.057Z,22.20
2022-08-09T09:47:28.551Z,22.10
2022-08-09T09:50:14.131Z,22.10
2022-08-09T09:52:54.888Z,22.10
2022-08-09T09:55:31.927Z,22.20
2022-08-09T09:58:18.814Z,22.30
2022-08-09T10:00:52.761Z,22.30
2022-08-09T10:03:44.858Z,22.30
2022-08-09T10:06:27.571Z,22.40
2022-08-09T10:09:11.588Z,22.50
2022-08-09T10:12:07.584Z,22.50
2022-08-09T10:14:47.665Z,22.50
2022-08-09T10:17:51.098Z,22.50
2022-08-09T10:20:27.096Z,22.50
2022-08-09T10:23:17.396Z,22.60
2022-08-09T10:26:08.126Z,22.60
2022-08-09T10:28:40.127Z,22.60
2022-08-09T10:34:10.251Z,22.40
2022-08-09T10:36:45.928Z,22.40
2022-08-09T10:39:19.736Z,22.40
2022-08-09T10:41:48.549Z,22.40
2022-08-09T10:44:21.785Z,22.40
2022-08-09T10:48:13.315Z,22.40
2022-08-09T10:50:14.983Z,22.40
2022-08-09T10:53:10.554Z,22.40
2022-08-09T10:55:57.703Z,22.40
2022-08-09T10:58:33.890Z,22.40
2022-08-09T11:03:06.875Z,22.50
2022-08-09T11:04:27.796Z,22.50
2022-08-09T11:07:54.996Z,22.50
2022-08-09T11:10:53.252Z,22.60
2022-08-09T11:13:49.959Z,22.70
2022-08-09T11:16:35.756Z,22.80
2022-08-09T11:19:08.051Z,22.70
2022-08-09T11:21:56.901Z,22.70
2022-08-09T11:25:09.059Z,22.70
2022-08-09T11:28:04.792Z,22.70
2022-08-09T11:30:37.830Z,22.70
2022-08-09T11:33:12.851Z,22.70
2022-08-09T11:35:49.649Z,22.70
2022-08-09T11:38:22.286Z,22.70
2022-08-09T11:40:57.006Z,22.80
2022-08-09T11:43:42.820Z,22.80
2022-08-09T11:46:12.612Z,22.90
2022-08-09T11:48:50.099Z,22.90
2022-08-09T11:51:21.324Z,22.90
2022-08-09T11:54:15.855Z,22.90
2022-08-09T11:58:00.576Z,22.90
2022-08-09T12:00:30.928Z,22.90
2022-08-09T12:03:32.086Z,22.80
2022-08-09T12:05:51.497Z,22.80
2022-08-09T12:08:22.150Z,22.90
2022-08-09T12:10:53.768Z,22.80
2022-08-09T12:14:10.074Z,22.80
2022-08-09T12:16:37.614Z,22.80
2022-08-09T12:19:11.393Z,22.80
2022-08-09T12:21:48.433Z,22.80
2022-08-09T12:24:22.262Z,22.80
2022-08-09T12:28:58.862Z,22.80
2022-08-09T12:30:01.885Z,22.90
2022-08-09T12:32:41.969Z,22.90
2022-08-09T12:35:13.427Z,23.00
2022-08-09T12:37:51.875Z,23.00
2022-08-09T12:40:23.169Z,23.00
2022-08-09T12:42:54.062Z,23.00
2022-08-09T12:45:33.484Z,23.00
2022-08-09T12:48:10.727Z,23.00
2022-08-09T12:50:51.356Z,23.00
2022-08-09T12:53:35.190Z,23.00
2022-08-09T12:56:37.114Z,23.00
2022-08-09T12:59:11.911Z,23.00
2022-08-09T13:01:49.054Z,23.00
2022-08-09T13:04:35.974Z,23.00
2022-08-09T13:07:16.340Z,23.00
2022-08-09T13:09:55.094Z,23.00
2022-08-09T13:12:28.255Z,23.00
2022-08-09T13:15:07.190Z,23.10
2022-08-09T13:18:02.896Z,23.10
2022-08-09T13:20:37.308Z,23.00
2022-08-09T13:24:15.559Z,23.00
2022-08-09T13:25:56.206Z,23.00
2022-08-09T13:28:35.573Z,22.90
2022-08-09T13:32:12.514Z,22.90
2022-08-09T13:33:54.649Z,22.90
2022-08-09T13:36:24.592Z,23.00
2022-08-09T13:41:22.456Z,23.00
2022-08-09T13:42:06.137Z,23.00
2022-08-09T13:44:42.853Z,23.00
2022-08-09T13:47:29.744Z,22.90
2022-08-09T13:50:01.671Z,22.90
2022-08-09T13:52:30.961Z,22.90
2022-08-09T13:55:05.219Z,22.90
2022-08-09T13:57:39.397Z,22.90
2022-08-09T14:00:13.741Z,22.90
2022-08-09T14:03:16.747Z,23.00
2022-08-09T14:05:57.137Z,22.90
2022-08-09T14:08:20.979Z,22.90
2022-08-09T14:10:53.074Z,22.90
2022-08-09T14:14:15.379Z,22.90
2022-08-09T14:16:14.491Z,23.00
2022-08-09T14:18:45.926Z,22.90
2022-08-09T14:21:22.568Z,22.90
2022-08-09T14:23:55.620Z,22.90
2022-08-09T14:26:31.616Z,22.90
2022-08-09T14:29:03.084Z,22.90
2022-08-09T14:31:36.254Z,22.90
2022-08-09T14:34:31.472Z,22.90
2022-08-09T14:37:02.483Z,22.90
2022-08-09T14:39:45.851Z,22.90
2022-08-09T14:42:30.155Z,22.90
2022-08-09T14:46:46.390Z,22.90
2022-08-09T14:47:59.216Z,22.90
2022-08-09T14:50:32.769Z,22.90
2022-08-09T14:53:01.281Z,22.90
2022-08-09T14:55:32.168Z,22.90
2022-08-09T14:58:03.611Z,22.90
2022-08-09T15:00:33.573Z,22.90
2022-08-09T15:03:03.866Z,22.90
2022-08-09T15:05:33.110Z,22.90
2022-08-09T15:08:01.688Z,22.90
2022-08-09T15:10:31.569Z,22.90
2022-08-09T15:13:03.312Z,22.90
2022-08-09T15:15:38.864Z,22.80
2022-08-09T15:18:14.073Z,22.80
2022-08-09T15:21:56.915Z,22.90
2022-08-09T15:24:05.985Z,22.90
2022-08-09T15:26:31.724Z,22.90
2022-08-09T15:29:04.862Z,22.90
2022-08-09T15:31:41.659Z,22.90
2022-08-09T15:34:31.480Z,22.90
2022-08-09T15:37:03.759Z,22.90
2022-08-09T15:39:34.647Z,22.90
2022-08-09T15:42:21.791Z,22.90
2022-08-09T15:44:51.633Z,22.90
2022-08-09T15:47:22.632Z,22.90
2022-08-09T15:50:04.639Z,22.90
2022-08-09T15:52:34.020Z,23.00
2022-08-09T15:55:02.446Z,23.00
2022-08-09T15:57:35.487Z,23.00
2022-08-09T16:00:24.654Z,23.00
2022-08-09T16:02:54.920Z,23.00
2022-08-09T16:05:47.780Z,23.00
2022-08-09T16:08:29.926Z,23.00
2022-08-09T16:10:59.959Z,23.00
2022-08-09T16:14:03.858Z,23.00
2022-08-09T16:16:19.728Z,23.00
2022-08-09T16:18:47.987Z,23.00
2022-08-09T16:21:25.654Z,23.10
2022-08-09T16:23:55.439Z,23.10
2022-08-09T16:26:33.627Z,23.10
2022-08-09T16:29:10.476Z,23.10
2022-08-09T16:32:18.206Z,23.10
2022-08-09T16:34:56.121Z,23.20
2022-08-09T16:37:56.084Z,23.20
2022-08-09T16:40:11.499Z,23.10
2022-08-09T16:42:45.574Z,23.10
2022-08-09T16:45:17.535Z,23.10
2022-08-09T16:48:41.704Z,23.10
2022-08-09T16:50:38.623Z,23.10
2022-08-09T16:53:09.045Z,23.10
2022-08-09T16:55:58.384Z,23.10
2022-08-09T16:58:27.760Z,23.10
2022-08-09T17:00:56.011Z,23.10
2022-08-09T17:03:25.487Z,23.10
2022-08-09T17:06:09.254Z,23.10
2022-08-09T17:09:01.396Z,23.10
2022-08-09T17:11:41.707Z,23.10
2022-08-09T17:14:26.097Z,23.10
2022-08-09T17:16:59.741Z,23.10
2022-08-09T17:19:46.695Z,23.10
2022-08-09T17:22:25.075Z,23.10
2022-08-09T17:25:03.007Z,23.10
2022-08-09T17:27:32.030Z,23.00
2022-08-09T17:30:00.026Z,23.00
2022-08-09T17:32:38.363Z,23.00
2022-08-09T17:35:12.416Z,23.00
2022-08-09T17:38:07.637Z,23.00
2022-08-09T17:40:32.689Z,23.00
2022-08-09T17:43:32.296Z,23.00
2022-08-09T17:46:02.969Z,23.00
2022-08-09T17:48:33.765Z,23.00
2022-08-09T17:51:10.391Z,23.00
2022-08-09T17:53:48.087Z,22.90
2022-08-09T17:56:20.859Z,22.90
2022-08-09T17:58:48.824Z,22.90
2022-08-09T18:01:23.344Z,22.90
2022-08-09T18:03:52.535Z,22.90
2022-08-09T18:06:31.756Z,22.90
2022-08-09T18:09:03.570Z,22.90
2022-08-09T18:12:05.071Z,22.90
2022-08-09T18:14:21.708Z,22.90
2022-08-09T18:16:49.963Z,22.90
2022-08-09T18:20:55.805Z,22.80
2022-08-09T18:22:16.826Z,22.90
2022-08-09T18:24:46.368Z,22.80
2022-08-09T18:27:49.163Z,22.80
2022-08-09T18:30:35.135Z,22.80
2022-08-09T18:32:54.484Z,22.80
2022-08-09T18:35:58.540Z,22.80
2022-08-09T18:38:13.082Z,22.70
2022-08-09T18:40:44.191Z,22.70
2022-08-09T18:43:12.810Z,22.70
2022-08-09T18:46:51.369Z,22.70
2022-08-09T18:48:33.078Z,22.70
2022-08-09T18:51:01.287Z,22.60
2022-08-09T18:53:59.796Z,22.60
2022-08-09T18:56:27.995Z,22.60
2022-08-09T18:58:56.515Z,22.60
2022-08-09T19:01:25.588Z,22.50
2022-08-09T19:04:06.442Z,22.50
2022-08-09T19:06:38.597Z,22.50
2022-08-09T19:09:09.033Z,22.50
2022-08-09T19:11:44.430Z,22.50
2022-08-09T19:14:12.467Z,22.40
2022-08-09T19:16:49.899Z,22.40
2022-08-09T19:19:23.812Z,22.40
2022-08-09T19:22:04.643Z,22.40
2022-08-09T19:25:07.628Z,22.30
2022-08-09T19:27:25.899Z,22.30
2022-08-09T19:30:21.394Z,22.30
2022-08-09T19:32:45.772Z,22.30
2022-08-09T19:35:17.284Z,22.20
2022-08-09T19:37:54.479Z,22.20
2022-08-09T19:40:34.547Z,22.20
2022-08-09T19:43:05.298Z,22.20
2022-08-09T19:45:40.438Z,22.20
2022-08-09T19:48:10.831Z,22.20
2022-08-09T19:50:51.422Z,22.10
2022-08-09T19:53:22.381Z,22.10
2022-08-09T19:56:02.932Z,22.10
2022-08-09T19:58:34.878Z,22.10
2022-08-09T20:01:04.009Z,22.00
2022-08-09T20:04:11.081Z,22.00
2022-08-09T20:06:22.284Z,22.00
2022-08-09T20:08:51.253Z,21.90
2022-08-09T20:11:20.850Z,22.00
2022-08-09T20:13:54.697Z,21.90
2022-08-09T20:16:35.865Z,21.90
2022-08-09T20:19:47.824Z,21.90
2022-08-09T20:22:00.298Z,21.90
2022-08-09T20:24:32.120Z,21.90
2022-08-09T20:27:05.583Z,21.80
2022-08-09T20:29:37.428Z,21.80
2022-08-09T20:32:41.936Z,21.70
2022-08-09T20:34:54.635Z,21.70
2022-08-09T20:37:22.838Z,21.60
2022-08-09T20:40:16.227Z,21.60
2022-08-09T20:42:41.385Z,21.60
2022-08-09T20:46:00.452Z,21.60
2022-08-09T20:48:11.183Z,21.60
2022-08-09T20:50:47.526Z,21.60
2022-08-09T20:53:35.043Z,21.60
2022-08-09T20:56:06.108Z,21.60
2022-08-09T20:58:35.679Z,21.60
2022-08-09T21:01:32.578Z,21.50
2022-08-09T21:05:49.101Z,21.60
2022-08-09T21:06:44.040Z,21.60
2022-08-09T21:09:13.700Z,21.60
2022-08-09T21:14:33.083Z,21.50
2022-08-09T21:18:20.618Z,21.40
2022-08-09T21:20:19.263Z,21.40
2022-08-09T21:22:42.341Z,21.40
2022-08-09T21:25:37.659Z,21.30
2022-08-09T21:28:07.548Z,21.30
2022-08-09T21:30:41.639Z,21.40
2022-08-09T21:33:10.684Z,21.40
2022-08-09T21:35:51.099Z,21.40
2022-08-09T21:38:31.195Z,21.40
2022-08-09T21:41:00.001Z,21.30
2022-08-09T21:43:57.133Z,21.40
2022-08-09T21:46:17.668Z,21.30
2022-08-09T21:48:49.072Z,21.30
2022-08-09T21:51:35.714Z,21.30
2022-08-09T21:54:04.385Z,21.30
2022-08-09T21:56:42.857Z,21.30
2022-08-09T21:59:14.189Z,21.30
2022-08-09T22:02:00.597Z,21.30
2022-08-09T22:04:55.711Z,21.20
2022-08-09T22:07:35.113Z,21.20
2022-08-09T22:10:07.790Z,21.20
2022-08-09T22:12:38.073Z,21.20
2022-08-09T22:15:16.583Z,21.20
2022-08-09T22:17:47.299Z,21.20
2022-08-09T22:20:21.503Z,21.10
2022-08-09T22:22:50.668Z,21.20
2022-08-09T22:26:07.194Z,21.20
2022-08-09T22:28:07.680Z,21.20
2022-08-09T22:30:36.585Z,21.20
2022-08-09T22:33:09.689Z,21.20
2022-08-09T22:36:01.956Z,21.10
2022-08-09T22:38:26.340Z,21.10
2022-08-09T22:40:57.800Z,21.10
2022-08-09T22:44:03.707Z,21.10
2022-08-09T22:48:11.474Z,21.00
2022-08-09T22:49:10.157Z,21.00
2022-08-09T22:51:43.271Z,21.00
2022-08-09T22:54:21.368Z,21.00
2022-08-09T22:56:54.623Z,21.00
2022-08-09T22:59:57.637Z,21.00
2022-08-09T23:02:15.894Z,20.90
2022-08-09T23:04:54.081Z,21.00
2022-08-09T23:08:21.750Z,21.00
2022-08-09T23:10:32.869Z,20.90
2022-08-09T23:13:00.921Z,20.90
2022-08-09T23:15:30.557Z,20.90
2022-08-09T23:17:58.531Z,20.80
2022-08-09T23:20:28.807Z,20.70
2022-08-09T23:22:56.928Z,20.70
2022-08-09T23:25:25.275Z,20.60
2022-08-09T23:28:11.648Z,20.60
2022-08-09T23:30:51.217Z,20.60
2022-08-09T23:33:20.358Z,20.70
2022-08-09T23:36:06.530Z,20.60
2022-08-09T23:38:35.656Z,20.60
2022-08-09T23:41:04.219Z,20.60
2022-08-09T23:43:32.390Z,20.60
2022-08-09T23:46:00.453Z,20.50
2022-08-09T23:48:28.701Z,20.50
2022-08-09T23:50:58.030Z,20.40
2022-08-09T23:53:29.038Z,20.40
2022-08-09T23:56:06.600Z,20.40
2022-08-09T23:58:35.003Z,20.40
